sensor_id;sensor_type;location;lat;lon;timestamp;P1;durP1;ratioP1;P2;durP2;ratioP2
21412;SDS011;10867;45.084;5.732;2023-12-20T06:30:21;15.73;;;14.13;;
21412;SDS011;10867;45.084;5.732;2023-12-20T06:32:49;15.63;;;14.00;;
21412;SDS011;10867;45.084;5.732;2023-12-20T06:35:16;17.20;;;15.40;;
21412;SDS011;10867;45.084;5.732;2023-12-20T06:37:45;17.73;;;15.82;;
21412;SDS011;10867;45.084;5.732;2023-12-20T06:40:11;18.50;;;16.63;;
21412;SDS011;10867;45.084;5.732;2023-12-20T06:42:37;20.13;;;18.02;;
21412;SDS011;10867;45.084;5.732;2023-12-20T06:45:04;18.58;;;16.58;;
21412;SDS011;10867;45.084;5.732;2023-12-20T06:47:30;18.40;;;16.60;;
21412;SDS011;10867;45.084;5.732;2023-12-20T06:49:56;18.83;;;16.80;;
21412;SDS011;10867;45.084;5.732;2023-12-20T06:52:22;19.03;;;17.03;;
21412;SDS011;10867;45.084;5.732;2023-12-20T06:54:48;18.40;;;16.50;;
21412;SDS011;10867;45.084;5.732;2023-12-20T06:57:14;17.50;;;15.73;;
21412;SDS011;10867;45.084;5.732;2023-12-20T06:59:41;17.27;;;15.55;;
21412;SDS011;10867;45.084;5.732;2023-12-20T07:02:08;18.13;;;16.17;;
21412;SDS011;10867;45.084;5.732;2023-12-20T07:04:35;19.90;;;17.80;;
21412;SDS011;10867;45.084;5.732;2023-12-20T07:07:04;20.65;;;18.45;;
21412;SDS011;10867;45.084;5.732;2023-12-20T07:09:30;26.13;;;20.83;;
21412;SDS011;10867;45.084;5.732;2023-12-20T07:11:56;32.80;;;26.83;;
21412;SDS011;10867;45.084;5.732;2023-12-20T07:14:26;30.00;;;25.30;;
21412;SDS011;10867;45.084;5.732;2023-12-20T07:16:52;23.88;;;21.27;;
21412;SDS011;10867;45.084;5.732;2023-12-20T07:19:19;22.95;;;20.50;;
21412;SDS011;10867;45.084;5.732;2023-12-20T07:21:45;26.48;;;23.15;;
21412;SDS011;10867;45.084;5.732;2023-12-20T07:24:11;23.85;;;21.35;;
21412;SDS011;10867;45.084;5.732;2023-12-20T07:26:37;27.70;;;23.77;;
21412;SDS011;10867;45.084;5.732;2023-12-20T07:29:07;38.92;;;21.33;;
21412;SDS011;10867;45.084;5.732;2023-12-20T07:31:36;23.60;;;20.80;;
21412;SDS011;10867;45.084;5.732;2023-12-20T07:34:03;22.20;;;19.90;;
21412;SDS011;10867;45.084;5.732;2023-12-20T07:36:30;22.33;;;20.02;;
21412;SDS011;10867;45.084;5.732;2023-12-20T07:38:56;24.92;;;21.30;;
21412;SDS011;10867;45.084;5.732;2023-12-20T07:41:22;21.27;;;19.10;;
21412;SDS011;10867;45.084;5.732;2023-12-20T07:43:49;21.75;;;19.45;;
21412;SDS011;10867;45.084;5.732;2023-12-20T07:46:15;21.58;;;19.38;;
21412;SDS011;10867;45.084;5.732;2023-12-20T07:48:41;23.70;;;21.20;;
21412;SDS011;10867;45.084;5.732;2023-12-20T07:51:07;23.88;;;21.35;;
21412;SDS011;10867;45.084;5.732;2023-12-20T07:53:35;22.95;;;20.45;;
21412;SDS011;10867;45.084;5.732;2023-12-20T07:56:01;25.13;;;22.48;;
21412;SDS011;10867;45.084;5.732;2023-12-20T07:58:27;26.65;;;23.13;;
21412;SDS011;10867;45.084;5.732;2023-12-20T08:00:55;27.98;;;24.92;;
21412;SDS011;10867;45.084;5.732;2023-12-20T08:03:21;27.70;;;24.05;;
21412;SDS011;10867;45.084;5.732;2023-12-20T08:05:47;26.30;;;23.50;;
21412;SDS011;10867;45.084;5.732;2023-12-20T08:08:13;24.67;;;21.30;;
21412;SDS011;10867;45.084;5.732;2023-12-20T08:10:39;26.80;;;23.87;;
21412;SDS011;10867;45.084;5.732;2023-12-20T08:13:05;24.83;;;22.23;;
21412;SDS011;10867;45.084;5.732;2023-12-20T08:15:32;26.50;;;23.75;;
21412;SDS011;10867;45.084;5.732;2023-12-20T08:17:58;27.52;;;24.35;;
21412;SDS011;10867;45.084;5.732;2023-12-20T08:20:24;30.15;;;26.85;;
21412;SDS011;10867;45.084;5.732;2023-12-20T08:22:50;32.58;;;29.02;;
21412;SDS011;10867;45.084;5.732;2023-12-20T08:25:16;33.03;;;29.47;;
21412;SDS011;10867;45.084;5.732;2023-12-20T08:27:42;31.20;;;27.88;;
21412;SDS011;10867;45.084;5.732;2023-12-20T08:30:09;34.70;;;30.23;;
21412;SDS011;10867;45.084;5.732;2023-12-20T08:32:35;31.83;;;28.17;;
21412;SDS011;10867;45.084;5.732;2023-12-20T08:35:01;32.00;;;28.48;;
21412;SDS011;10867;45.084;5.732;2023-12-20T08:37:27;30.42;;;27.20;;
21412;SDS011;10867;45.084;5.732;2023-12-20T08:39:54;32.55;;;24.33;;
21412;SDS011;10867;45.084;5.732;2023-12-20T08:42:20;27.48;;;24.58;;
21412;SDS011;10867;45.084;5.732;2023-12-20T08:44:46;30.30;;;27.00;;
21412;SDS011;10867;45.084;5.732;2023-12-20T08:47:12;28.08;;;24.83;;
21412;SDS011;10867;45.084;5.732;2023-12-20T08:49:40;27.40;;;24.70;;
21412;SDS011;10867;45.084;5.732;2023-12-20T08:52:07;28.83;;;26.02;;
21412;SDS011;10867;45.084;5.732;2023-12-20T08:54:33;28.38;;;24.30;;
21412;SDS011;10867;45.084;5.732;2023-12-20T08:56:59;28.13;;;25.20;;
21412;SDS011;10867;45.084;5.732;2023-12-20T08:59:25;28.95;;;25.83;;
21412;SDS011;10867;45.084;5.732;2023-12-20T09:01:51;30.83;;;27.55;;
21412;SDS011;10867;45.084;5.732;2023-12-20T09:04:20;28.88;;;25.85;;
21412;SDS011;10867;45.084;5.732;2023-12-20T09:06:46;30.67;;;27.48;;
21412;SDS011;10867;45.084;5.732;2023-12-20T09:09:12;29.58;;;26.58;;
21412;SDS011;10867;45.084;5.732;2023-12-20T09:11:41;28.23;;;25.35;;
21412;SDS011;10867;45.084;5.732;2023-12-20T09:14:07;29.10;;;26.05;;
21412;SDS011;10867;45.084;5.732;2023-12-20T09:16:34;27.45;;;24.65;;
21412;SDS011;10867;45.084;5.732;2023-12-20T09:19:00;26.50;;;23.77;;
21412;SDS011;10867;45.084;5.732;2023-12-20T09:21:26;30.50;;;27.42;;
21412;SDS011;10867;45.084;5.732;2023-12-20T09:23:52;34.40;;;30.77;;
21412;SDS011;10867;45.084;5.732;2023-12-20T09:26:18;33.58;;;29.73;;
21412;SDS011;10867;45.084;5.732;2023-12-20T09:28:46;33.90;;;30.30;;
21412;SDS011;10867;45.084;5.732;2023-12-20T09:31:12;33.05;;;29.52;;
21412;SDS011;10867;45.084;5.732;2023-12-20T09:33:39;33.03;;;29.48;;
21412;SDS011;10867;45.084;5.732;2023-12-20T09:36:05;34.80;;;31.00;;
21412;SDS011;10867;45.084;5.732;2023-12-20T09:38:31;42.08;;;37.67;;
21412;SDS011;10867;45.084;5.732;2023-12-20T09:40:57;52.85;;;47.08;;
21412;SDS011;10867;45.084;5.732;2023-12-20T09:43:23;47.70;;;42.47;;
21412;SDS011;10867;45.084;5.732;2023-12-20T09:45:57;35.85;;;32.35;;
21412;SDS011;10867;45.084;5.732;2023-12-20T09:48:28;35.65;;;31.77;;
21412;SDS011;10867;45.084;5.732;2023-12-20T09:50:54;36.58;;;32.72;;
21412;SDS011;10867;45.084;5.732;2023-12-20T09:53:21;32.40;;;29.00;;
21412;SDS011;10867;45.084;5.732;2023-12-20T09:55:48;28.52;;;25.70;;
21412;SDS011;10867;45.084;5.732;2023-12-20T09:58:15;30.42;;;27.25;;
21412;SDS011;10867;45.084;5.732;2023-12-20T10:00:43;30.50;;;27.30;;
21412;SDS011;10867;45.084;5.732;2023-12-20T10:03:09;30.92;;;27.73;;
21412;SDS011;10867;45.084;5.732;2023-12-20T10:05:35;25.90;;;23.20;;
21412;SDS011;10867;45.084;5.732;2023-12-20T10:08:02;17.23;;;15.48;;
21412;SDS011;10867;45.084;5.732;2023-12-20T10:10:30;9.45;;;8.55;;
21412;SDS011;10867;45.084;5.732;2023-12-20T10:15:29;8.35;;;7.55;;
21412;SDS011;10867;45.084;5.732;2023-12-20T10:18:00;8.40;;;6.97;;
21412;SDS011;10867;45.084;5.732;2023-12-20T10:20:54;8.20;;;7.40;;
21412;SDS011;10867;45.084;5.732;2023-12-20T10:23:21;6.90;;;6.18;;
21412;SDS011;10867;45.084;5.732;2023-12-20T10:25:56;7.78;;;7.05;;
21412;SDS011;10867;45.084;5.732;2023-12-20T10:28:44;9.10;;;8.15;;
21412;SDS011;10867;45.084;5.732;2023-12-20T10:31:18;14.93;;;10.88;;
21412;SDS011;10867;45.084;5.732;2023-12-20T10:33:51;11.52;;;10.43;;
21412;SDS011;10867;45.084;5.732;2023-12-20T10:36:23;13.27;;;11.90;;
21412;SDS011;10867;45.084;5.732;2023-12-20T10:38:54;13.50;;;12.10;;
21412;SDS011;10867;45.084;5.732;2023-12-20T10:41:27;14.60;;;13.10;;
21412;SDS011;10867;45.084;5.732;2023-12-20T10:44:03;15.20;;;12.65;;
21412;SDS011;10867;45.084;5.732;2023-12-20T10:46:33;12.90;;;11.43;;
21412;SDS011;10867;45.084;5.732;2023-12-20T10:49:05;13.82;;;12.18;;
21412;SDS011;10867;45.084;5.732;2023-12-20T10:51:33;11.57;;;10.38;;
21412;SDS011;10867;45.084;5.732;2023-12-20T10:54:05;11.60;;;10.48;;
21412;SDS011;10867;45.084;5.732;2023-12-20T10:56:34;11.32;;;10.18;;
21412;SDS011;10867;45.084;5.732;2023-12-20T10:59:01;10.03;;;9.03;;
21412;SDS011;10867;45.084;5.732;2023-12-20T11:01:55;10.70;;;9.70;;
21412;SDS011;10867;45.084;5.732;2023-12-20T11:04:31;12.45;;;11.15;;
21412;SDS011;10867;45.084;5.732;2023-12-20T11:07:33;10.70;;;9.60;;
21412;SDS011;10867;45.084;5.732;2023-12-20T11:15:25;9.95;;;8.43;;
21412;SDS011;10867;45.084;5.732;2023-12-20T11:17:56;8.70;;;7.88;;
21412;SDS011;10867;45.084;5.732;2023-12-20T11:20:24;9.63;;;8.18;;
21412;SDS011;10867;45.084;5.732;2023-12-20T11:23:06;7.55;;;6.85;;
21412;SDS011;10867;45.084;5.732;2023-12-20T11:31:47;6.75;;;5.65;;
21412;SDS011;10867;45.084;5.732;2023-12-20T11:34:13;6.70;;;6.00;;
21412;SDS011;10867;45.084;5.732;2023-12-20T11:36:39;5.90;;;5.40;;
21412;SDS011;10867;45.084;5.732;2023-12-20T11:39:05;5.53;;;4.70;;
21412;SDS011;10867;45.084;5.732;2023-12-20T11:42:04;4.90;;;4.50;;
21412;SDS011;10867;45.084;5.732;2023-12-20T11:44:46;5.22;;;4.75;;
21412;SDS011;10867;45.084;5.732;2023-12-20T11:47:43;6.72;;;6.03;;
21412;SDS011;10867;45.084;5.732;2023-12-20T11:50:23;6.57;;;5.93;;
21412;SDS011;10867;45.084;5.732;2023-12-20T11:53:31;5.10;;;4.70;;
21412;SDS011;10867;45.084;5.732;2023-12-20T11:56:07;4.95;;;4.55;;
21412;SDS011;10867;45.084;5.732;2023-12-20T11:58:43;5.90;;;5.38;;
21412;SDS011;10867;45.084;5.732;2023-12-20T12:01:13;6.40;;;5.80;;
21412;SDS011;10867;45.084;5.732;2023-12-20T12:06:25;6.40;;;5.80;;
21412;SDS011;10867;45.084;5.732;2023-12-20T12:08:56;6.35;;;5.75;;
21412;SDS011;10867;45.084;5.732;2023-12-20T12:11:44;6.47;;;5.88;;
21412;SDS011;10867;45.084;5.732;2023-12-20T12:14:15;6.55;;;5.95;;
21412;SDS011;10867;45.084;5.732;2023-12-20T12:16:49;6.65;;;6.05;;
21412;SDS011;10867;45.084;5.732;2023-12-20T12:19:29;5.97;;;5.47;;
21412;SDS011;10867;45.084;5.732;2023-12-20T12:22:35;5.55;;;5.05;;
21412;SDS011;10867;45.084;5.732;2023-12-20T12:25:10;5.70;;;5.20;;
21412;SDS011;10867;45.084;5.732;2023-12-20T12:31:45;5.20;;;4.80;;
21412;SDS011;10867;45.084;5.732;2023-12-20T12:34:12;5.30;;;4.90;;
21412;SDS011;10867;45.084;5.732;2023-12-20T12:37:12;4.97;;;4.57;;
21412;SDS011;10867;45.084;5.732;2023-12-20T12:40:22;5.13;;;4.72;;
21412;SDS011;10867;45.084;5.732;2023-12-20T12:43:19;5.80;;;5.30;;
21412;SDS011;10867;45.084;5.732;2023-12-20T12:48:54;5.43;;;5.03;;
21412;SDS011;10867;45.084;5.732;2023-12-20T12:51:20;5.40;;;5.00;;
21412;SDS011;10867;45.084;5.732;2023-12-20T12:53:47;6.10;;;5.60;;
21412;SDS011;10867;45.084;5.732;2023-12-20T12:56:13;6.03;;;5.53;;
21412;SDS011;10867;45.084;5.732;2023-12-20T12:58:39;6.45;;;5.85;;
21412;SDS011;10867;45.084;5.732;2023-12-20T13:01:06;7.50;;;6.80;;
21412;SDS011;10867;45.084;5.732;2023-12-20T13:03:32;6.97;;;6.38;;
21412;SDS011;10867;45.084;5.732;2023-12-20T13:06:01;7.00;;;6.40;;
21412;SDS011;10867;45.084;5.732;2023-12-20T13:08:29;6.70;;;6.10;;
21412;SDS011;10867;45.084;5.732;2023-12-20T13:10:56;6.57;;;5.97;;
21412;SDS011;10867;45.084;5.732;2023-12-20T13:13:25;6.87;;;6.27;;
21412;SDS011;10867;45.084;5.732;2023-12-20T13:15:51;7.00;;;6.40;;
21412;SDS011;10867;45.084;5.732;2023-12-20T13:18:19;6.82;;;6.22;;
21412;SDS011;10867;45.084;5.732;2023-12-20T13:20:46;6.67;;;6.10;;
21412;SDS011;10867;45.084;5.732;2023-12-20T13:23:12;6.50;;;6.00;;
21412;SDS011;10867;45.084;5.732;2023-12-20T13:25:38;6.40;;;5.80;;
21412;SDS011;10867;45.084;5.732;2023-12-20T13:28:07;6.53;;;5.93;;
21412;SDS011;10867;45.084;5.732;2023-12-20T13:30:34;6.28;;;5.78;;
21412;SDS011;10867;45.084;5.732;2023-12-20T13:33:00;5.80;;;5.30;;
21412;SDS011;10867;45.084;5.732;2023-12-20T13:35:27;6.03;;;5.53;;
21412;SDS011;10867;45.084;5.732;2023-12-20T13:37:53;6.57;;;5.97;;
21412;SDS011;10867;45.084;5.732;2023-12-20T13:40:19;6.53;;;5.93;;
21412;SDS011;10867;45.084;5.732;2023-12-20T13:42:45;5.72;;;5.22;;
21412;SDS011;10867;45.084;5.732;2023-12-20T13:45:11;6.20;;;5.55;;
21412;SDS011;10867;45.084;5.732;2023-12-20T13:47:37;6.38;;;5.57;;
21412;SDS011;10867;45.084;5.732;2023-12-20T13:50:06;5.68;;;5.18;;
21412;SDS011;10867;45.084;5.732;2023-12-20T13:52:32;6.20;;;5.70;;
21412;SDS011;10867;45.084;5.732;2023-12-20T13:54:58;6.00;;;5.45;;
21412;SDS011;10867;45.084;5.732;2023-12-20T13:57:24;6.15;;;5.55;;
21412;SDS011;10867;45.084;5.732;2023-12-20T13:59:50;5.95;;;5.40;;
21412;SDS011;10867;45.084;5.732;2023-12-20T14:02:16;6.32;;;5.55;;
21412;SDS011;10867;45.084;5.732;2023-12-20T14:04:42;5.68;;;5.07;;
21412;SDS011;10867;45.084;5.732;2023-12-20T14:07:09;5.90;;;5.28;;
21412;SDS011;10867;45.084;5.732;2023-12-20T14:09:37;5.50;;;5.00;;
21412;SDS011;10867;45.084;5.732;2023-12-20T14:12:04;5.20;;;4.70;;
21412;SDS011;10867;45.084;5.732;2023-12-20T14:14:30;5.10;;;4.70;;
21412;SDS011;10867;45.084;5.732;2023-12-20T14:16:56;5.22;;;4.72;;
21412;SDS011;10867;45.084;5.732;2023-12-20T14:19:22;5.05;;;4.47;;
21412;SDS011;10867;45.084;5.732;2023-12-20T14:21:48;5.07;;;4.50;;
21412;SDS011;10867;45.084;5.732;2023-12-20T14:24:14;4.70;;;4.30;;
21412;SDS011;10867;45.084;5.732;2023-12-20T14:26:41;4.40;;;4.00;;
21412;SDS011;10867;45.084;5.732;2023-12-20T14:29:07;4.47;;;4.07;;
21412;SDS011;10867;45.084;5.732;2023-12-20T14:31:34;4.95;;;4.40;;
21412;SDS011;10867;45.084;5.732;2023-12-20T14:34:00;4.55;;;4.00;;
21412;SDS011;10867;45.084;5.732;2023-12-20T14:36:29;6.68;;;4.15;;
21412;SDS011;10867;45.084;5.732;2023-12-20T14:38:56;3.30;;;2.92;;
21412;SDS011;10867;45.084;5.732;2023-12-20T14:41:22;3.88;;;3.20;;
21412;SDS011;10867;45.084;5.732;2023-12-20T14:43:51;3.72;;;3.17;;
21412;SDS011;10867;45.084;5.732;2023-12-20T14:46:18;3.60;;;2.80;;
21412;SDS011;10867;45.084;5.732;2023-12-20T14:48:44;4.57;;;3.00;;
21412;SDS011;10867;45.084;5.732;2023-12-20T14:51:15;3.25;;;2.50;;
21412;SDS011;10867;45.084;5.732;2023-12-20T14:53:43;3.63;;;2.58;;
21412;SDS011;10867;45.084;5.732;2023-12-20T14:56:09;4.50;;;2.90;;
21412;SDS011;10867;45.084;5.732;2023-12-20T14:58:35;3.25;;;2.00;;
21412;SDS011;10867;45.084;5.732;2023-12-20T15:01:02;4.18;;;2.20;;
21412;SDS011;10867;45.084;5.732;2023-12-20T15:03:28;4.28;;;3.10;;
21412;SDS011;10867;45.084;5.732;2023-12-20T15:05:55;4.78;;;2.72;;
21412;SDS011;10867;45.084;5.732;2023-12-20T15:08:23;3.83;;;2.58;;
21412;SDS011;10867;45.084;5.732;2023-12-20T15:10:50;4.77;;;3.10;;
21412;SDS011;10867;45.084;5.732;2023-12-20T15:13:16;3.83;;;2.80;;
21412;SDS011;10867;45.084;5.732;2023-12-20T15:15:42;4.65;;;2.38;;
21412;SDS011;10867;45.084;5.732;2023-12-20T15:18:08;3.58;;;2.83;;
21412;SDS011;10867;45.084;5.732;2023-12-20T15:20:35;31.07;;;27.73;;
21412;SDS011;10867;45.084;5.732;2023-12-20T15:23:02;4.40;;;3.17;;
21412;SDS011;10867;45.084;5.732;2023-12-20T15:25:33;5.55;;;3.72;;
21412;SDS011;10867;45.084;5.732;2023-12-20T15:27:59;4.32;;;3.55;;
21412;SDS011;10867;45.084;5.732;2023-12-20T15:30:30;3.40;;;2.00;;
21412;SDS011;10867;45.084;5.732;2023-12-20T15:33:07;3.78;;;2.55;;
21412;SDS011;10867;45.084;5.732;2023-12-20T15:35:58;3.03;;;1.70;;
21412;SDS011;10867;45.084;5.732;2023-12-20T15:38:24;2.85;;;1.65;;
21412;SDS011;10867;45.084;5.732;2023-12-20T15:40:51;6.15;;;5.20;;
21412;SDS011;10867;45.084;5.732;2023-12-20T15:43:36;3.55;;;2.30;;
21412;SDS011;10867;45.084;5.732;2023-12-20T15:46:03;4.35;;;1.80;;
21412;SDS011;10867;45.084;5.732;2023-12-20T15:48:29;4.28;;;2.00;;
21412;SDS011;10867;45.084;5.732;2023-12-20T15:50:56;3.15;;;1.70;;
21412;SDS011;10867;45.084;5.732;2023-12-20T15:53:22;12.45;;;10.80;;
21412;SDS011;10867;45.084;5.732;2023-12-20T15:55:48;5.55;;;4.65;;
21412;SDS011;10867;45.084;5.732;2023-12-20T15:58:14;4.40;;;2.10;;
21412;SDS011;10867;45.084;5.732;2023-12-20T16:00:40;4.28;;;2.38;;
21412;SDS011;10867;45.084;5.732;2023-12-20T16:03:06;4.18;;;3.38;;
21412;SDS011;10867;45.084;5.732;2023-12-20T16:05:33;9.55;;;7.90;;
21412;SDS011;10867;45.084;5.732;2023-12-20T16:08:00;14.57;;;12.30;;
21412;SDS011;10867;45.084;5.732;2023-12-20T16:10:26;3.77;;;2.50;;
21412;SDS011;10867;45.084;5.732;2023-12-20T16:12:53;4.82;;;2.85;;
21412;SDS011;10867;45.084;5.732;2023-12-20T16:15:29;3.25;;;1.90;;
21412;SDS011;10867;45.084;5.732;2023-12-20T16:17:55;4.13;;;1.67;;
21412;SDS011;10867;45.084;5.732;2023-12-20T16:20:21;3.60;;;1.90;;
21412;SDS011;10867;45.084;5.732;2023-12-20T16:22:48;4.60;;;1.80;;
21412;SDS011;10867;45.084;5.732;2023-12-20T16:25:14;4.78;;;1.92;;
21412;SDS011;10867;45.084;5.732;2023-12-20T16:27:40;3.47;;;1.55;;
21412;SDS011;10867;45.084;5.732;2023-12-20T16:30:06;3.85;;;1.90;;
21412;SDS011;10867;45.084;5.732;2023-12-20T16:32:33;3.40;;;1.55;;
21412;SDS011;10867;45.084;5.732;2023-12-20T16:34:59;3.72;;;1.90;;
21412;SDS011;10867;45.084;5.732;2023-12-20T16:37:26;4.57;;;2.03;;
21412;SDS011;10867;45.084;5.732;2023-12-20T16:39:52;7.47;;;3.83;;
21412;SDS011;10867;45.084;5.732;2023-12-20T16:42:18;5.10;;;2.83;;
21412;SDS011;10867;45.084;5.732;2023-12-20T16:44:44;4.40;;;2.55;;
21412;SDS011;10867;45.084;5.732;2023-12-20T16:47:10;3.40;;;1.58;;
21412;SDS011;10867;45.084;5.732;2023-12-20T16:49:36;3.35;;;1.88;;
21412;SDS011;10867;45.084;5.732;2023-12-20T16:52:03;3.17;;;1.77;;
21412;SDS011;10867;45.084;5.732;2023-12-20T16:54:29;3.55;;;1.75;;
21412;SDS011;10867;45.084;5.732;2023-12-20T16:56:56;5.43;;;2.10;;
21412;SDS011;10867;45.084;5.732;2023-12-20T16:59:22;4.55;;;1.60;;
21412;SDS011;10867;45.084;5.732;2023-12-20T17:01:48;4.03;;;1.92;;
21412;SDS011;10867;45.084;5.732;2023-12-20T17:04:14;3.53;;;1.90;;
21412;SDS011;10867;45.084;5.732;2023-12-20T17:06:40;5.13;;;2.15;;
21412;SDS011;10867;45.084;5.732;2023-12-20T17:09:06;3.45;;;1.67;;
21412;SDS011;10867;45.084;5.732;2023-12-20T17:11:34;4.18;;;2.17;;
21412;SDS011;10867;45.084;5.732;2023-12-20T17:14:00;5.45;;;2.00;;
21412;SDS011;10867;45.084;5.732;2023-12-20T17:16:26;3.55;;;1.77;;
21412;SDS011;10867;45.084;5.732;2023-12-20T17:18:52;3.35;;;1.70;;
21412;SDS011;10867;45.084;5.732;2023-12-20T17:21:18;3.60;;;1.92;;
21412;SDS011;10867;45.084;5.732;2023-12-20T17:23:49;4.30;;;1.77;;
21412;SDS011;10867;45.084;5.732;2023-12-20T17:26:15;3.88;;;2.00;;
21412;SDS011;10867;45.084;5.732;2023-12-20T17:28:41;4.22;;;2.00;;
21412;SDS011;10867;45.084;5.732;2023-12-20T17:31:08;4.65;;;2.40;;
21412;SDS011;10867;45.084;5.732;2023-12-20T17:33:34;4.15;;;1.90;;
21412;SDS011;10867;45.084;5.732;2023-12-20T17:36:00;4.07;;;1.90;;
21412;SDS011;10867;45.084;5.732;2023-12-20T17:38:27;3.85;;;2.13;;
21412;SDS011;10867;45.084;5.732;2023-12-20T17:40:54;3.15;;;1.90;;
21412;SDS011;10867;45.084;5.732;2023-12-20T17:45:50;4.40;;;2.30;;
21412;SDS011;10867;45.084;5.732;2023-12-20T17:48:19;3.30;;;1.80;;
21412;SDS011;10867;45.084;5.732;2023-12-20T17:56:33;3.83;;;1.90;;
21412;SDS011;10867;45.084;5.732;2023-12-20T17:59:03;4.75;;;1.98;;
21412;SDS011;10867;45.084;5.732;2023-12-20T18:01:32;4.18;;;1.90;;
21412;SDS011;10867;45.084;5.732;2023-12-20T18:03:58;3.47;;;1.70;;
21412;SDS011;10867;45.084;5.732;2023-12-20T18:06:24;3.63;;;1.73;;
21412;SDS011;10867;45.084;5.732;2023-12-20T18:08:50;5.20;;;1.77;;
21412;SDS011;10867;45.084;5.732;2023-12-20T18:11:16;3.63;;;1.75;;
21412;SDS011;10867;45.084;5.732;2023-12-20T18:13:45;3.03;;;1.60;;
21412;SDS011;10867;45.084;5.732;2023-12-20T18:16:11;5.68;;;2.38;;
21412;SDS011;10867;45.084;5.732;2023-12-20T18:18:37;3.33;;;1.95;;
21412;SDS011;10867;45.084;5.732;2023-12-20T18:21:03;3.17;;;2.22;;
21412;SDS011;10867;45.084;5.732;2023-12-20T18:23:30;4.43;;;2.60;;
21412;SDS011;10867;45.084;5.732;2023-12-20T18:25:56;5.35;;;2.95;;
21412;SDS011;10867;45.084;5.732;2023-12-20T18:28:22;3.28;;;1.92;;
21412;SDS011;10867;45.084;5.732;2023-12-20T18:30:48;3.63;;;2.00;;
21412;SDS011;10867;45.084;5.732;2023-12-20T18:33:14;5.93;;;2.80;;
21412;SDS011;10867;45.084;5.732;2023-12-20T18:35:41;5.32;;;2.42;;
21412;SDS011;10867;45.084;5.732;2023-12-20T18:38:09;5.93;;;2.92;;
21412;SDS011;10867;45.084;5.732;2023-12-20T18:40:35;3.67;;;2.38;;
21412;SDS011;10867;45.084;5.732;2023-12-20T18:43:03;4.15;;;2.15;;
21412;SDS011;10867;45.084;5.732;2023-12-20T18:45:29;7.90;;;6.63;;
21412;SDS011;10867;45.084;5.732;2023-12-20T18:47:58;4.97;;;2.85;;
21412;SDS011;10867;45.084;5.732;2023-12-20T18:50:34;3.33;;;2.45;;
21412;SDS011;10867;45.084;5.732;2023-12-20T18:53:05;4.00;;;2.22;;
21412;SDS011;10867;45.084;5.732;2023-12-20T18:55:39;3.60;;;1.98;;
21412;SDS011;10867;45.084;5.732;2023-12-20T18:58:05;4.45;;;1.90;;
21412;SDS011;10867;45.084;5.732;2023-12-20T19:00:40;3.50;;;2.00;;
21412;SDS011;10867;45.084;5.732;2023-12-20T19:03:07;5.60;;;2.30;;
21412;SDS011;10867;45.084;5.732;2023-12-20T19:05:33;4.80;;;2.00;;
21412;SDS011;10867;45.084;5.732;2023-12-20T19:07:59;4.03;;;2.08;;
21412;SDS011;10867;45.084;5.732;2023-12-20T19:10:25;4.50;;;2.25;;
21412;SDS011;10867;45.084;5.732;2023-12-20T19:12:51;4.50;;;2.38;;
21412;SDS011;10867;45.084;5.732;2023-12-20T19:15:38;4.25;;;2.15;;
21412;SDS011;10867;45.084;5.732;2023-12-20T19:18:04;2.33;;;1.60;;
21412;SDS011;10867;45.084;5.732;2023-12-20T19:20:33;3.97;;;1.98;;
21412;SDS011;10867;45.084;5.732;2023-12-20T19:23:01;6.97;;;2.10;;
21412;SDS011;10867;45.084;5.732;2023-12-20T19:25:45;4.13;;;1.90;;
21412;SDS011;10867;45.084;5.732;2023-12-20T19:28:11;3.63;;;1.85;;
21412;SDS011;10867;45.084;5.732;2023-12-20T19:30:37;4.88;;;2.10;;
21412;SDS011;10867;45.084;5.732;2023-12-20T19:33:03;4.75;;;1.90;;
21412;SDS011;10867;45.084;5.732;2023-12-20T19:35:30;3.80;;;2.00;;
21412;SDS011;10867;45.084;5.732;2023-12-20T19:37:56;5.03;;;2.00;;
21412;SDS011;10867;45.084;5.732;2023-12-20T19:40:22;5.47;;;1.90;;
21412;SDS011;10867;45.084;5.732;2023-12-20T19:42:48;4.32;;;2.65;;
21412;SDS011;10867;45.084;5.732;2023-12-20T19:45:15;3.60;;;2.17;;
21412;SDS011;10867;45.084;5.732;2023-12-20T19:47:50;4.30;;;1.92;;
21412;SDS011;10867;45.084;5.732;2023-12-20T19:50:21;5.43;;;2.25;;
21412;SDS011;10867;45.084;5.732;2023-12-20T19:52:47;3.08;;;1.75;;
21412;SDS011;10867;45.084;5.732;2023-12-20T19:55:18;4.47;;;1.95;;
21412;SDS011;10867;45.084;5.732;2023-12-20T19:57:47;4.78;;;2.10;;
21412;SDS011;10867;45.084;5.732;2023-12-20T20:00:17;4.78;;;1.73;;
21412;SDS011;10867;45.084;5.732;2023-12-20T20:02:43;6.13;;;2.00;;
21412;SDS011;10867;45.084;5.732;2023-12-20T20:05:10;4.93;;;2.13;;
21412;SDS011;10867;45.084;5.732;2023-12-20T20:07:36;5.80;;;1.85;;
21412;SDS011;10867;45.084;5.732;2023-12-20T20:10:02;6.93;;;5.03;;
21412;SDS011;10867;45.084;5.732;2023-12-20T20:12:28;6.07;;;3.25;;
21412;SDS011;10867;45.084;5.732;2023-12-20T20:14:54;6.03;;;2.90;;
21412;SDS011;10867;45.084;5.732;2023-12-20T20:17:20;7.07;;;3.60;;
21412;SDS011;10867;45.084;5.732;2023-12-20T20:19:54;5.38;;;2.97;;
21412;SDS011;10867;45.084;5.732;2023-12-20T20:22:51;7.07;;;2.83;;
21412;SDS011;10867;45.084;5.732;2023-12-20T20:25:38;4.40;;;2.20;;
21412;SDS011;10867;45.084;5.732;2023-12-20T20:28:03;4.57;;;1.93;;
21412;SDS011;10867;45.084;5.732;2023-12-20T20:30:29;3.97;;;2.25;;
21412;SDS011;10867;45.084;5.732;2023-12-20T20:33:16;4.82;;;2.13;;
21412;SDS011;10867;45.084;5.732;2023-12-20T20:35:42;4.55;;;2.03;;
21412;SDS011;10867;45.084;5.732;2023-12-20T20:38:08;4.43;;;2.00;;
21412;SDS011;10867;45.084;5.732;2023-12-20T20:40:38;4.32;;;2.25;;
21412;SDS011;10867;45.084;5.732;2023-12-20T20:43:07;4.72;;;2.70;;
21412;SDS011;10867;45.084;5.732;2023-12-20T20:45:34;6.93;;;3.00;;
21412;SDS011;10867;45.084;5.732;2023-12-20T20:48:00;4.83;;;2.77;;
21412;SDS011;10867;45.084;5.732;2023-12-20T20:50:28;4.00;;;2.10;;
21412;SDS011;10867;45.084;5.732;2023-12-20T20:52:58;4.65;;;2.20;;
21412;SDS011;10867;45.084;5.732;2023-12-20T20:55:27;3.83;;;2.40;;
21412;SDS011;10867;45.084;5.732;2023-12-20T20:57:56;5.55;;;2.20;;
21412;SDS011;10867;45.084;5.732;2023-12-20T21:00:26;5.70;;;2.30;;
21412;SDS011;10867;45.084;5.732;2023-12-20T21:02:53;3.73;;;1.97;;
21412;SDS011;10867;45.084;5.732;2023-12-20T21:06:02;4.27;;;2.13;;
21412;SDS011;10867;45.084;5.732;2023-12-20T21:08:30;4.63;;;2.20;;
21412;SDS011;10867;45.084;5.732;2023-12-20T21:11:17;4.10;;;2.10;;
21412;SDS011;10867;45.084;5.732;2023-12-20T21:13:46;5.15;;;2.15;;
21412;SDS011;10867;45.084;5.732;2023-12-20T21:16:19;4.30;;;2.00;;
21412;SDS011;10867;45.084;5.732;2023-12-20T21:18:45;5.03;;;2.30;;
21412;SDS011;10867;45.084;5.732;2023-12-20T21:21:12;4.15;;;2.30;;
21412;SDS011;10867;45.084;5.732;2023-12-20T21:23:39;4.97;;;2.20;;
21412;SDS011;10867;45.084;5.732;2023-12-20T21:26:07;7.73;;;5.17;;
21412;SDS011;10867;45.084;5.732;2023-12-20T21:28:36;8.05;;;6.10;;
21412;SDS011;10867;45.084;5.732;2023-12-20T21:31:02;18.73;;;16.67;;
21412;SDS011;10867;45.084;5.732;2023-12-20T21:33:28;5.00;;;2.80;;
21412;SDS011;10867;45.084;5.732;2023-12-20T21:35:55;5.65;;;2.40;;
21412;SDS011;10867;45.084;5.732;2023-12-20T21:38:21;4.63;;;2.40;;
21412;SDS011;10867;45.084;5.732;2023-12-20T21:40:47;5.03;;;2.22;;
21412;SDS011;10867;45.084;5.732;2023-12-20T21:43:13;4.55;;;3.00;;
21412;SDS011;10867;45.084;5.732;2023-12-20T21:45:39;5.38;;;2.60;;
21412;SDS011;10867;45.084;5.732;2023-12-20T21:48:08;5.80;;;2.75;;
21412;SDS011;10867;45.084;5.732;2023-12-20T21:50:34;6.80;;;3.97;;
21412;SDS011;10867;45.084;5.732;2023-12-20T21:53:04;7.90;;;4.35;;